Time;durP1;ratioP1;P1;durP2;ratioP2;P2;SDS_P1;SDS_P2;PMS_P1;PMS_P2;Temp;Humidity;BMP_temperature;BMP_pressure;BME280_temperature;BME280_humidity;BME280_pressure;Samples;Min_cycle;Max_cycle;Signal;HPM_P1;HPM_P2
2022/10/08 00:01:07;;;;;;;15.82;5.10;;;;;;;7.64;76.53;100777.22;6052655;23;20060;-80
2022/10/08 00:03:36;;;;;;;13.40;4.65;;;;;;;7.63;76.66;100783.22;6100378;23;20021;-79
2022/10/08 00:06:05;;;;;;;12.95;5.13;;;;;;;7.73;76.71;100795.53;6126533;23;20062;-79
2022/10/08 00:08:34;;;;;;;16.67;6.00;;;;;;;7.58;76.11;100761.56;6125673;23;20091;-79
2022/10/08 00:11:05;;;;;;;14.73;5.60;;;;;;;7.57;76.86;100775.38;6099952;23;20357;-79
2022/10/08 00:13:42;;;;;;;11.23;4.85;;;;;;;7.58;76.61;100787.47;6127244;23;20563;-78
2022/10/08 00:16:33;;;;;;;12.60;5.22;;;;;;;7.52;76.67;100762.31;6110436;23;20018;-80
2022/10/08 00:19:02;;;;;;;12.35;5.10;;;;;;;7.54;76.59;100782.22;6103038;23;20033;-79
2022/10/08 00:21:31;;;;;;;14.05;5.45;;;;;;;7.31;76.70;100735.16;6115909;23;20010;-80
2022/10/08 00:23:58;;;;;;;14.10;4.70;;;;;;;7.50;76.65;100770.06;6101151;23;20153;-79
2022/10/08 00:26:26;;;;;;;10.30;5.00;;;;;;;7.57;76.66;100780.56;6100063;23;20057;-80
2022/10/08 00:28:56;;;;;;;12.13;4.82;;;;;;;7.47;76.17;100770.00;6125262;23;20029;-81
2022/10/08 00:31:27;;;;;;;13.20;5.32;;;;;;;7.51;76.47;100778.69;6125700;23;20069;-79
2022/10/08 00:33:55;;;;;;;12.38;4.60;;;;;;;7.52;77.00;100777.84;6099922;23;20028;-79
2022/10/08 00:36:23;;;;;;;16.25;4.57;;;;;;;7.51;76.54;100782.16;6052540;23;20029;-80
2022/10/08 00:39:12;;;;;;;16.88;5.30;;;;;;;7.51;76.90;100782.16;6075800;23;20024;-81
2022/10/08 00:41:39;;;;;;;14.77;5.90;;;;;;;7.49;76.52;100786.44;6104231;23;20014;-79
2022/10/08 00:44:42;;;;;;;14.77;5.50;;;;;;;7.51;76.81;100782.16;6140067;23;20021;-79
2022/10/08 00:47:19;;;;;;;13.35;5.00;;;;;;;7.48;77.10;100776.94;6125022;23;20045;-80
2022/10/08 00:49:48;;;;;;;16.70;5.07;;;;;;;7.41;77.07;100759.50;6130391;23;20356;-80
2022/10/08 00:52:15;;;;;;;17.90;4.32;;;;;;;7.47;77.48;100766.56;6100090;23;20056;-80
2022/10/08 00:54:41;;;;;;;12.30;4.72;;;;;;;7.51;76.71;100773.50;6075548;23;20022;-79
2022/10/08 00:57:08;;;;;;;12.82;4.22;;;;;;;7.41;77.09;100762.09;6099834;23;20022;-80
2022/10/08 00:59:36;;;;;;;14.68;4.78;;;;;;;7.47;77.03;100774.31;6100429;23;20403;-78
2022/10/08 01:02:03;;;;;;;15.43;4.20;;;;;;;7.47;77.63;100782.94;6109063;23;20033;-79
2022/10/08 01:04:29;;;;;;;11.30;4.30;;;;;;;7.43;76.85;100773.38;6104651;23;20332;-79
2022/10/08 01:07:11;;;;;;;16.98;5.47;;;;;;;7.53;76.98;100782.19;6100089;23;20024;-80
2022/10/08 01:10:05;;;;;;;13.10;4.30;;;;;;;7.42;77.07;100757.81;6077954;23;20018;-79
2022/10/08 01:12:54;;;;;;;16.08;4.50;;;;;;;7.62;77.36;100779.78;6152192;23;20052;-79
2022/10/08 01:15:35;;;;;;;15.00;4.60;;;;;;;7.61;77.37;100767.69;6125964;23;20009;-80
2022/10/08 01:18:31;;;;;;;13.98;4.63;;;;;;;7.82;77.33;100790.53;6076325;23;20487;-79
2022/10/08 01:21:14;;;;;;;12.38;4.40;;;;;;;7.99;77.32;100789.94;6096954;23;20463;-79
2022/10/08 01:25:31;;;;;;;13.93;4.20;;;;;;;8.18;77.35;100788.53;6080761;23;20468;-80
2022/10/08 01:27:27;;;;;;;13.45;3.47;;;;;;;8.28;77.42;100781.78;6100409;23;20025;-79
2022/10/08 01:29:55;;;;;;;9.45;3.95;;;;;;;8.39;77.45;100777.66;6126205;23;20364;-78
2022/10/08 01:32:25;;;;;;;8.75;3.45;;;;;;;8.48;77.19;100773.47;6126261;23;20022;-80
2022/10/08 01:34:59;;;;;;;10.35;4.15;;;;;;;8.53;77.11;100779.59;6075671;23;20018;-79
2022/10/08 01:37:37;;;;;;;8.27;3.50;;;;;;;8.71;77.08;100787.69;6100300;23;20100;-81
2022/10/08 01:40:10;;;;;;;12.25;3.45;;;;;;;8.79;77.17;100789.50;6125767;23;20026;-79
2022/10/08 01:42:40;;;;;;;8.43;3.17;;;;;;;8.85;76.79;100787.00;6099726;23;20017;-78
2022/10/08 01:45:11;;;;;;;8.68;3.08;;;;;;;8.92;77.12;100782.75;6126608;23;20482;-81
2022/10/08 01:47:38;;;;;;;10.73;3.70;;;;;;;8.96;77.03;100779.34;6101819;23;20018;-80
2022/10/08 01:50:13;;;;;;;7.55;3.00;;;;;;;8.92;77.11;100765.47;6109059;23;20026;-79
2022/10/08 01:52:47;;;;;;;9.52;3.20;;;;;;;9.04;76.59;100773.41;6122938;23;20010;-81
2022/10/08 01:55:24;;;;;;;11.23;3.67;;;;;;;9.09;76.55;100775.19;6117065;23;20026;-80
2022/10/08 01:57:51;;;;;;;9.35;3.13;;;;;;;9.03;76.42;100753.50;6077930;23;20028;-80
2022/10/08 02:00:17;;;;;;;14.40;3.33;;;;;;;9.23;76.49;100783.16;6100226;23;20021;-79
2022/10/08 02:02:43;;;;;;;10.10;3.00;;;;;;;8.98;76.67;100739.56;6125653;23;20027;-80
2022/10/08 02:05:11;;;;;;;7.82;3.33;;;;;;;9.23;76.60;100776.22;6099011;23;20349;-78
2022/10/08 02:07:42;;;;;;;7.30;2.67;;;;;;;9.15;76.48;100765.75;6125848;23;20024;-80
2022/10/08 02:10:16;;;;;;;7.90;3.00;;;;;;;9.29;76.70;100789.28;6099026;23;20018;-78
2022/10/08 02:12:43;;;;;;;11.48;3.03;;;;;;;9.31;76.76;100784.09;6123611;23;20029;-78
2022/10/08 02:15:14;;;;;;;9.45;2.85;;;;;;;9.19;76.43;100771.84;6125963;23;20022;-80
2022/10/08 02:18:05;;;;;;;7.65;3.08;;;;;;;9.27;76.22;100787.56;6101514;23;20445;-80
2022/10/08 02:20:46;;;;;;;10.55;3.42;;;;;;;9.18;76.55;100768.38;6108095;23;20022;-79
2022/10/08 02:23:21;;;;;;;6.85;2.90;;;;;;;9.33;76.13;100783.28;6081801;23;20025;-79
2022/10/08 02:25:56;;;;;;;7.57;3.10;;;;;;;9.27;75.89;100767.63;6124568;23;20022;-79
2022/10/08 02:28:55;;;;;;;7.68;2.97;;;;;;;9.39;76.12;100779.88;6099748;23;20022;-80
2022/10/08 02:31:31;;;;;;;8.55;3.17;;;;;;;9.20;76.14;100760.59;6076514;23;20022;-80
2022/10/08 02:34:14;;;;;;;6.53;3.15;;;;;;;9.31;75.99;100785.00;6099218;23;20489;-80
2022/10/08 02:36:44;;;;;;;7.38;2.92;;;;;;;9.30;75.89;100788.44;6099340;23;20407;-79
2022/10/08 02:39:15;;;;;;;5.50;2.90;;;;;;;9.23;75.91;100772.78;6074355;23;20022;-80
2022/10/08 02:41:47;;;;;;;9.48;3.20;;;;;;;9.38;76.17;100790.28;6099226;23;20024;-80
2022/10/08 02:44:28;;;;;;;6.85;3.00;;;;;;;9.40;76.09;100793.72;6125407;23;20101;-79
2022/10/08 02:46:58;;;;;;;5.20;2.83;;;;;;;9.43;75.68;100794.66;6099271;23;20022;-79
2022/10/08 02:49:29;;;;;;;9.88;3.45;;;;;;;9.28;76.07;100763.28;6125735;23;20097;-80
2022/10/08 02:51:57;;;;;;;8.20;3.13;;;;;;;9.44;75.59;100791.22;6107789;23;20364;-78
2022/10/08 02:54:23;;;;;;;8.05;2.50;;;;;;;9.40;75.63;100788.53;6120085;23;20070;-80
2022/10/08 02:57:10;;;;;;;10.60;3.00;;;;;;;9.44;75.59;100790.31;6118078;23;20024;-79
2022/10/08 02:59:36;;;;;;;7.63;2.80;;;;;;;9.41;75.59;100785.97;6127003;23;20014;-80
2022/10/08 03:02:04;;;;;;;5.90;2.97;;;;;;;9.46;75.81;100789.50;6100901;23;20018;-81
2022/10/08 03:04:37;;;;;;;8.43;3.00;;;;;;;9.26;75.80;100754.63;6099821;23;20430;-78
2022/10/08 03:07:04;;;;;;;8.07;2.92;;;;;;;9.40;75.75;100776.44;6099879;23;20108;-80
2022/10/08 03:09:35;;;;;;;9.23;2.80;;;;;;;9.41;76.17;100780.78;6098579;23;20375;-78
2022/10/08 03:12:02;;;;;;;9.40;3.00;;;;;;;9.48;76.15;100786.91;6124745;23;20510;-79
2022/10/08 03:14:32;;;;;;;8.10;3.00;;;;;;;9.53;75.46;100789.56;6124578;23;20021;-78
2022/10/08 03:16:59;;;;;;;8.25;2.58;;;;;;;9.54;75.77;100780.91;6123490;23;20511;-79
2022/10/08 03:19:26;;;;;;;7.20;2.60;;;;;;;9.47;75.80;100765.28;6097925;23;20518;-79
2022/10/08 03:21:55;;;;;;;7.45;2.83;;;;;;;9.40;75.75;100742.66;6099145;23;20104;-79
2022/10/08 03:24:21;;;;;;;8.35;2.78;;;;;;;9.58;75.38;100775.78;6103351;23;20021;-81
2022/10/08 03:26:47;;;;;;;10.23;3.10;;;;;;;9.68;75.52;100783.66;6115518;23;20010;-80
2022/10/08 03:29:14;;;;;;;9.57;2.75;;;;;;;9.47;75.83;100749.69;6079503;23;20086;-78
2022/10/08 03:31:40;;;;;;;10.23;2.95;;;;;;;9.64;75.33;100783.63;6143660;23;20068;-78
2022/10/08 03:34:06;;;;;;;6.88;2.85;;;;;;;9.64;75.22;100778.41;6078185;23;20128;-80
2022/10/08 03:36:32;;;;;;;13.07;2.80;;;;;;;9.58;75.50;100774.91;6106758;23;20045;-81
2022/10/08 03:38:58;;;;;;;13.88;2.80;;;;;;;9.43;74.90;100763.50;6131723;23;20073;-79
2022/10/08 03:41:24;;;;;;;9.07;3.13;;;;;;;9.58;75.40;100787.88;6100853;23;20022;-79
2022/10/08 03:43:50;;;;;;;11.10;3.30;;;;;;;9.54;75.46;100780.91;6100694;23;20017;-79
2022/10/08 03:46:16;;;;;;;7.35;2.80;;;;;;;9.59;75.58;100784.44;6101413;23;20052;-78
2022/10/08 03:48:42;;;;;;;9.38;2.80;;;;;;;9.59;75.24;100785.31;6127824;23;20460;-79
2022/10/08 03:51:13;;;;;;;6.78;2.58;;;;;;;9.60;75.39;100776.63;6101490;23;20131;-79
2022/10/08 03:53:42;;;;;;;9.20;2.67;;;;;;;9.49;75.46;100775.66;6104522;23;20021;-79
2022/10/08 03:56:11;;;;;;;7.63;3.00;;;;;;;9.57;75.60;100783.53;6130179;23;20088;-83
2022/10/08 03:58:40;;;;;;;6.80;2.67;;;;;;;9.46;75.25;100765.25;6103293;23;20082;-80
2022/10/08 04:01:12;;;;;;;8.73;2.88;;;;;;;9.03;75.42;100703.31;6104645;23;20025;-81
2022/10/08 04:03:38;;;;;;;9.20;3.50;;;;;;;9.31;75.33;100753.81;6103744;23;20022;-81
2022/10/08 04:06:05;;;;;;;8.98;2.72;;;;;;;9.31;75.43;100740.84;6100601;23;20026;-81
2022/10/08 04:08:32;;;;;;;8.73;3.38;;;;;;;9.25;75.34;100738.16;6101297;23;20018;-80
2022/10/08 04:11:03;;;;;;;9.55;3.25;;;;;;;9.61;75.06;100793.97;6126941;23;20022;-79
2022/10/08 04:13:31;;;;;;;;;;;;;;;9.61;75.42;100793.97;6103278;23;20014;-80
2022/10/08 04:16:19;;;;;;;9.55;3.13;;;;;;;9.42;75.34;100764.34;6077621;23;19939;-80
2022/10/08 04:18:49;;;;;;;7.68;3.00;;;;;;;9.61;75.26;100796.56;6057432;23;20080;-82
2022/10/08 04:22:40;;;;;;;6.70;2.75;;;;;;;8.70;75.06;100648.41;6083314;23;20020;-80
2022/10/08 04:25:34;;;;;;;8.57;2.40;;;;;;;8.95;75.35;100682.41;6058038;23;20042;-79
2022/10/08 04:28:05;;;;;;;8.88;3.60;;;;;;;9.19;75.19;100723.38;6102444;23;20033;-81
2022/10/08 04:30:34;;;;;;;8.43;2.90;;;;;;;9.62;75.04;100803.53;6101478;23;20047;-82
2022/10/08 04:33:11;;;;;;;9.90;2.88;;;;;;;9.39;75.07;100759.09;6101985;23;20136;-80
2022/10/08 04:35:40;;;;;;;6.72;3.58;;;;;;;9.13;75.12;100717.25;6076794;23;20096;-79
2022/10/08 04:38:10;;;;;;;10.60;3.38;;;;;;;9.42;75.18;100771.25;6101792;23;20045;-80
2022/10/08 04:40:48;;;;;;;11.27;3.10;;;;;;;8.57;75.29;100615.34;6102549;23;20026;-80
2022/10/08 04:43:28;;;;;;;8.77;3.35;;;;;;;9.45;75.32;100738.41;6103552;23;20101;-79
2022/10/08 04:46:34;;;;;;;7.60;3.15;;;;;;;9.89;74.97;100793.41;6103375;23;20102;-80
2022/10/08 04:49:10;;;;;;;9.98;3.45;;;;;;;8.85;74.88;100637.31;6131126;23;20109;-81
2022/10/08 04:51:37;;;;;;;6.78;3.17;;;;;;;9.98;75.43;100800.44;6103035;23;20029;-80
2022/10/08 04:54:39;;;;;;;6.97;3.60;;;;;;;9.34;75.23;100681.13;6108313;23;20026;-80
2022/10/08 04:57:56;;;;;;;11.35;3.65;;;;;;;8.97;74.83;100627.94;6102464;23;20352;-80
2022/10/08 05:01:08;;;;;;;13.15;3.53;;;;;;;10.06;74.38;100796.16;6112981;23;20021;-80
2022/10/08 05:04:39;;;;;;;13.70;3.80;;;;;;;10.16;74.58;100804.91;6140402;23;20021;-81
2022/10/08 05:15:30;;;;;;;7.40;3.17;;;;;;;10.25;74.55;100813.69;5998206;23;20019;-80
2022/10/08 05:18:41;;;;;;;10.90;3.55;;;;;;;10.24;74.59;100819.75;5982561;23;20052;-80
2022/10/08 05:21:13;;;;;;;11.00;3.83;;;;;;;10.25;74.44;100811.09;5979043;24;20454;-80
2022/10/08 05:24:47;;;;;;;9.18;3.63;;;;;;;9.80;74.24;100731.81;6078366;23;20041;-81
2022/10/08 05:28:06;;;;;;;10.63;3.08;;;;;;;9.39;74.42;100659.50;6070128;23;20033;-83
2022/10/08 05:31:56;;;;;;;12.63;3.80;;;;;;;10.07;74.24;100771.88;6103615;23;20026;-80
2022/10/08 05:39:23;;;;;;;9.77;4.28;;;;;;;9.33;74.21;100650.81;6038559;23;20027;-80
2022/10/08 05:42:17;;;;;;;12.27;3.17;;;;;;;10.32;74.28;100800.72;6052477;23;20010;-79
2022/10/08 05:44:51;;;;;;;11.02;3.15;;;;;;;9.42;74.01;100650.03;6078809;23;20036;-79
2022/10/08 05:47:17;;;;;;;10.25;2.97;;;;;;;10.16;74.12;100766.78;6053124;23;20025;-80
2022/10/08 05:49:55;;;;;;;7.85;3.38;;;;;;;9.47;73.84;100661.34;6104761;23;20018;-79
2022/10/08 05:58:07;;;;;;;9.10;3.30;;;;;;;10.64;73.82;100810.53;6073327;23;20033;-80
2022/10/08 06:00:59;;;;;;;11.75;3.60;;;;;;;9.72;73.75;100661.53;6104621;23;20033;-79
2022/10/08 06:03:43;;;;;;;13.73;3.03;;;;;;;10.46;73.93;100748.81;6132963;23;20017;-82
2022/10/08 06:07:16;;;;;;;8.80;2.83;;;;;;;9.87;73.60;100642.59;6107841;23;20049;-81
2022/10/08 06:10:20;;;;;;;13.88;4.15;;;;;;;10.28;73.49;100706.19;6116750;23;20049;-80
2022/10/08 06:12:49;;;;;;;7.13;2.80;;;;;;;10.83;73.13;100773.34;6109128;23;20455;-80
2022/10/08 06:15:19;;;;;;;5.75;2.95;;;;;;;10.82;73.04;100758.59;6106591;23;20081;-80
2022/10/08 06:17:45;;;;;;;10.38;3.40;;;;;;;11.39;73.22;100830.91;6107763;23;20098;-80
2022/10/08 06:21:28;;;;;;;10.65;3.38;;;;;;;11.43;72.87;100814.41;6109365;23;20017;-83
2022/10/08 06:33:22;;;;;;;8.20;3.00;;;;;;;11.81;72.05;100749.34;5984171;24;20035;-81
2022/10/08 06:45:28;;;;;;;9.55;2.92;;;;;;;15.07;69.67;100824.50;5961305;24;20027;-80
2022/10/08 06:49:38;;;;;;;9.55;3.17;;;;;;;15.69;67.63;100789.63;6025920;23;20039;-82
2022/10/08 06:52:40;;;;;;;7.90;3.00;;;;;;;17.07;67.26;100807.50;5818645;24;20065;-80
2022/10/08 07:04:38;;;;;;;11.05;2.88;;;;;;;19.38;62.27;100591.69;5879705;24;20094;-81
2022/10/08 07:07:18;;;;;;;6.40;2.50;;;;;;;22.80;58.29;100783.31;5976405;23;20917;-80
2022/10/08 07:09:44;;;;;;;7.85;2.60;;;;;;;25.25;56.08;100773.13;6053342;23;20033;-81
2022/10/08 07:12:22;;;;;;;5.55;2.60;;;;;;;26.37;51.67;100714.31;6106741;23;20456;-82
2022/10/08 07:14:48;;;;;;;8.23;2.70;;;;;;;27.96;46.98;100740.75;6092407;23;20029;-80
2022/10/08 07:17:16;;;;;;;5.32;2.45;;;;;;;28.62;42.70;100693.50;6109835;23;20022;-82
2022/10/08 07:20:11;;;;;;;6.00;2.33;;;;;;;28.99;39.57;100584.63;6097349;23;20021;-81
2022/10/08 07:23:23;;;;;;;7.05;2.40;;;;;;;30.04;37.27;100629.47;6050226;23;20086;-81
2022/10/08 07:26:11;;;;;;;8.50;5.07;;;;;;;30.82;36.42;100697.72;6054891;23;20018;-81
2022/10/08 07:28:51;;;;;;;7.75;2.60;;;;;;;30.86;35.00;100755.59;6053712;23;20774;-82
2022/10/08 07:32:00;;;;;;;7.30;2.60;;;;;;;30.32;34.65;100681.00;6110780;23;20025;-83
2022/10/08 07:34:29;;;;;;;9.50;2.90;;;;;;;31.48;33.44;100713.00;6038630;23;20041;-81
2022/10/08 07:36:55;;;;;;;5.25;2.40;;;;;;;30.79;32.21;100709.56;6070602;23;20053;-79
2022/10/08 07:39:35;;;;;;;6.97;2.97;;;;;;;30.86;32.77;100761.81;6074360;23;20041;-81
2022/10/08 07:42:05;;;;;;;9.15;2.70;;;;;;;32.47;31.98;100733.44;6073681;23;20018;-85
2022/10/08 07:44:54;;;;;;;7.07;2.60;;;;;;;33.54;29.10;100705.13;6038854;23;20670;-80
2022/10/08 07:47:20;;;;;;;5.53;2.55;;;;;;;34.33;28.45;100730.16;6095642;23;20011;-81
2022/10/08 07:49:50;;;;;;;6.28;2.70;;;;;;;34.07;27.98;100630.94;6111519;23;20018;-81
2022/10/08 07:52:19;;;;;;;5.78;2.67;;;;;;;34.87;27.52;100727.69;6089560;23;20034;-81
2022/10/08 07:54:57;;;;;;;7.03;2.70;;;;;;;34.80;26.32;100703.13;6071933;23;20026;-82
2022/10/08 07:57:54;;;;;;;8.52;2.63;;;;;;;35.16;26.83;100739.38;6091825;23;20096;-80
2022/10/08 08:01:27;;;;;;;;;;;;;;;;;;;;;
2022/10/08 08:04:15;;;;;;;6.30;2.30;;;;;;;35.33;26.13;100662.81;6119057;23;20029;-82
2022/10/08 08:06:51;;;;;;;8.90;2.33;;;;;;;36.29;25.21;100717.22;6127783;23;20116;-82
2022/10/08 08:09:22;;;;;;;7.63;2.08;;;;;;;37.17;24.88;100715.25;6083653;23;20371;-81
2022/10/08 08:11:51;;;;;;;5.20;2.08;;;;;;;37.12;24.29;100668.78;6124657;23;20016;-81
2022/10/08 08:14:18;;;;;;;7.65;2.78;;;;;;;37.02;24.01;100704.19;6147753;23;20372;-81
2022/10/08 08:16:50;;;;;;;5.72;2.30;;;;;;;36.83;24.01;100681.75;6070192;23;20018;-81
2022/10/08 08:19:29;;;;;;;;;;;;;;;;;;;;;
2022/10/08 08:25:27;;;;;;;6.63;2.20;;;;;;;36.17;23.52;100636.25;6021458;23;20401;-84
2022/10/08 08:27:53;;;;;;;6.38;2.03;;;;;;;36.32;23.59;100712.31;6070308;23;20543;-82
2022/10/08 08:30:19;;;;;;;6.15;2.28;;;;;;;35.21;24.01;100624.34;6023646;23;20023;-81
2022/10/08 08:32:45;;;;;;;8.10;2.70;;;;;;;34.21;24.27;100699.78;6073838;23;20185;-81
2022/10/08 08:35:12;;;;;;;6.75;2.50;;;;;;;33.92;25.44;100709.66;6019388;23;20018;-82
2022/10/08 08:37:38;;;;;;;6.97;2.42;;;;;;;34.47;24.92;100689.22;6045364;23;20023;-81
2022/10/08 08:40:06;;;;;;;6.53;2.20;;;;;;;33.44;24.46;100689.78;6053911;23;20042;-81
2022/10/08 08:42:35;;;;;;;7.20;2.10;;;;;;;32.47;26.88;100701.94;6046177;23;20544;-82
2022/10/08 08:45:13;;;;;;;6.70;1.92;;;;;;;30.51;27.58;100712.59;6071686;23;20019;-83
2022/10/08 08:47:43;;;;;;;5.93;2.30;;;;;;;29.45;29.44;100713.47;6033222;23;20017;-83
2022/10/08 08:50:26;;;;;;;8.98;2.20;;;;;;;30.42;28.43;100690.97;6110110;23;20105;-82
2022/10/08 08:52:56;;;;;;;5.57;2.17;;;;;;;32.86;27.11;100691.38;6057183;23;20044;-82
2022/10/08 08:55:50;;;;;;;9.48;2.10;;;;;;;31.50;26.80;100676.91;6105856;23;20499;-83
2022/10/08 08:58:47;;;;;;;8.35;2.47;;;;;;;31.29;28.19;100695.72;6110397;23;20025;-83
2022/10/08 09:01:40;;;;;;;11.45;2.45;;;;;;;31.05;27.69;100661.78;6128000;23;20014;-83
2022/10/08 09:04:11;;;;;;;5.07;1.98;;;;;;;30.05;28.63;100678.63;6104751;23;20017;-83
2022/10/08 09:07:49;;;;;;;;;;;;;;;;;;;;;
2022/10/08 09:14:58;;;;;;;;;;;;;;;;;;;;;
2022/10/08 09:18:17;;;;;;;5.43;1.92;;;;;;;28.90;31.20;100520.19;5978384;23;20216;-83
2022/10/08 09:21:43;;;;;;;4.80;2.03;;;;;;;31.35;28.54;100656.72;5978885;23;20043;-81
2022/10/08 09:25:32;;;;;;;6.07;2.47;;;;;;;32.67;27.60;100611.31;5980232;23;20215;-82
2022/10/08 09:29:00;;;;;;;5.35;1.85;;;;;;;32.61;27.75;100633.41;5989483;23;20023;-80
2022/10/08 09:32:16;;;;;;;4.93;2.03;;;;;;;33.77;26.83;100640.91;5986687;23;20477;-85
2022/10/08 09:35:23;;;;;;;7.50;2.35;;;;;;;32.38;26.84;100500.84;6006619;23;20051;-82
2022/10/08 09:39:11;;;;;;;4.43;1.88;;;;;;;32.21;27.76;100640.47;5964598;23;20162;-83
2022/10/08 09:46:30;;;;;;;10.85;2.60;;;;;;;27.93;29.94;100642.00;6077377;23;20017;-81
2022/10/08 09:49:20;;;;;;;6.75;2.00;;;;;;;26.06;30.43;100565.97;6121147;23;20036;-83
2022/10/08 09:58:45;;;;;;;5.10;2.10;;;;;;;25.33;31.84;100567.63;6105291;23;20021;-82
2022/10/08 10:01:35;;;;;;;9.23;2.47;;;;;;;24.24;32.86;100645.44;6118110;23;20018;-83
2022/10/08 10:04:44;;;;;;;7.50;2.10;;;;;;;22.87;34.36;100636.19;6095296;23;20013;-79
2022/10/08 10:08:10;;;;;;;5.40;2.13;;;;;;;21.07;35.35;100484.22;6068328;23;20018;-81
2022/10/08 10:11:56;;;;;;;9.80;2.20;;;;;;;21.41;36.18;100635.47;6091836;23;20101;-82
2022/10/08 10:15:08;;;;;;;4.80;2.45;;;;;;;20.77;37.71;100625.59;6122173;23;20037;-82
2022/10/08 10:18:05;;;;;;;7.75;2.40;;;;;;;20.56;37.78;100621.09;6089453;23;20026;-84
2022/10/08 10:20:53;;;;;;;;;;;;;;;;;;;;;
2022/10/08 10:24:32;;;;;;;5.97;4.57;;;;;;;19.23;39.04;100508.66;6137452;23;20093;-83
2022/10/08 10:27:26;;;;;;;6.07;2.40;;;;;;;19.36;39.63;100579.44;6020773;23;20044;-82
2022/10/08 10:30:39;;;;;;;5.72;2.22;;;;;;;19.20;41.21;100619.53;6030770;23;20077;-84
2022/10/08 10:34:11;;;;;;;7.95;2.13;;;;;;;18.80;41.93;100624.22;6103806;23;20044;-82
2022/10/08 10:37:31;;;;;;;6.65;1.90;;;;;;;17.79;42.10;100476.09;6033752;23;20055;-81
2022/10/08 10:45:05;;;;;;;6.78;2.13;;;;;;;18.19;43.17;100618.97;5853184;24;20026;-82
2022/10/08 10:48:14;;;;;;;6.40;2.38;;;;;;;17.76;43.51;100560.41;6017560;23;20125;-81
2022/10/08 10:51:02;;;;;;;6.85;3.17;;;;;;;17.64;43.45;100544.94;5994751;23;20023;-81
2022/10/08 10:53:49;;;;;;;6.72;2.00;;;;;;;17.87;43.71;100596.97;6028417;23;20138;-83
2022/10/08 10:56:18;;;;;;;6.38;2.47;;;;;;;17.59;44.27;100587.16;6132224;23;20006;-84
2022/10/08 10:59:16;;;;;;;9.20;2.50;;;;;;;17.50;44.33;100596.16;6111761;23;20014;-83
2022/10/08 11:02:12;;;;;;;7.28;2.78;;;;;;;17.40;44.40;100594.66;6104245;23;20041;-83
2022/10/08 11:04:51;;;;;;;8.90;2.60;;;;;;;17.15;45.34;100597.88;6107800;23;20018;-82
2022/10/08 11:07:31;;;;;;;9.88;2.60;;;;;;;17.01;45.40;100588.53;6104409;23;20045;-81
2022/10/08 11:10:50;;;;;;;;;;;;;;;;;;;;;
2022/10/08 11:13:56;;;;;;;5.60;2.30;;;;;;;16.08;46.04;100493.34;6076277;23;20460;-86
2022/10/08 11:16:38;;;;;;;6.85;2.17;;;;;;;16.62;46.62;100579.75;6085497;23;20024;-82
2022/10/08 11:19:19;;;;;;;6.03;2.20;;;;;;;15.60;46.95;100415.53;6097739;23;20001;-82
2022/10/08 11:22:31;;;;;;;8.15;2.58;;;;;;;16.54;46.97;100587.81;6066149;23;20034;31
2022/10/08 11:25:22;;;;;;;6.88;2.00;;;;;;;16.45;47.03;100586.22;5977471;24;20032;-84
2022/10/08 11:28:44;;;;;;;9.25;1.88;;;;;;;16.42;46.83;100578.41;5988789;24;20023;-82
2022/10/08 11:31:59;;;;;;;7.35;2.22;;;;;;;16.32;47.02;100576.88;5988732;24;20558;-81
2022/10/08 11:34:36;;;;;;;5.45;2.10;;;;;;;16.25;47.38;100573.50;6001888;23;20489;31
2022/10/08 11:37:30;;;;;;;10.30;2.63;;;;;;;15.24;47.37;100403.97;5999749;23;20479;-82
2022/10/08 11:40:33;;;;;;;7.13;2.50;;;;;;;16.23;47.60;100559.53;6044163;23;20481;-83
2022/10/08 11:43:38;;;;;;;3.92;2.08;;;;;;;16.18;47.84;100556.13;6021688;23;20015;-82
2022/10/08 11:46:28;;;;;;;;;;;;;;;16.16;48.20;100558.81;6048181;23;20026;-81
2022/10/08 11:49:03;;;;;;;7.28;1.70;;;;;;;16.09;48.26;100546.69;6030704;23;19936;-81
2022/10/08 11:51:51;;;;;;;7.22;2.20;;;;;;;15.77;48.34;100485.19;6030385;23;20023;-82
2022/10/08 11:54:56;;;;;;;7.63;2.20;;;;;;;15.00;47.95;100362.47;6010246;23;20126;-82
2022/10/08 11:58:03;;;;;;;11.27;2.20;;;;;;;15.31;48.03;100430.09;6026249;23;20055;-82
2022/10/08 12:00:44;;;;;;;9.52;2.00;;;;;;;15.57;48.61;100468.03;6029166;23;20140;-81
2022/10/08 12:04:06;;;;;;;5.82;1.90;;;;;;;14.80;48.62;100354.13;6023580;23;20048;-82
2022/10/08 12:15:32;;;;;;;9.20;2.55;;;;;;;15.79;49.24;100523.59;5942791;24;20051;-83
2022/10/08 12:18:50;;;;;;;7.70;1.88;;;;;;;15.75;49.19;100505.34;5939135;24;20065;-80
2022/10/08 12:21:27;;;;;;;6.88;1.98;;;;;;;15.70;49.45;100504.56;5966056;24;20020;-82
2022/10/08 12:24:45;;;;;;;7.25;2.03;;;;;;;15.67;49.67;100510.69;5987893;24;20016;-79
2022/10/08 12:28:52;;;;;;;4.68;1.80;;;;;;;15.62;49.42;100494.22;5906532;24;20021;-82
2022/10/08 12:37:33;;;;;;;4.15;2.10;;;;;;;14.68;49.83;100350.81;6048114;23;20041;-80
2022/10/08 12:44:26;;;;;;;9.23;2.05;;;;;;;14.18;50.25;100292.28;6019554;23;20019;-79
2022/10/08 12:46:55;;;;;;;3.55;1.83;;;;;;;15.33;50.36;100479.84;6017247;23;20019;-80
2022/10/08 12:50:07;;;;;;;5.53;2.38;;;;;;;15.30;50.43;100477.28;6044365;23;20105;-80
2022/10/08 12:53:13;;;;;;;7.88;2.47;;;;;;;15.25;50.41;100466.00;6035186;23;20167;-83
2022/10/08 12:56:32;;;;;;;7.93;2.22;;;;;;;15.21;50.18;100459.97;6036427;23;20043;-81
2022/10/08 12:59:46;;;;;;;;;;;;;;;;;;;;;
2022/10/08 13:02:42;;;;;;;7.35;2.22;;;;;;;14.82;50.02;100400.34;6040969;23;20015;-80
2022/10/08 13:06:12;;;;;;;7.90;2.22;;;;;;;14.62;49.99;100366.63;6130281;23;20062;-80
2022/10/08 13:08:51;;;;;;;7.63;1.98;;;;;;;14.74;50.23;100391.78;6026005;23;20018;-80
2022/10/08 13:11:17;;;;;;;7.78;2.45;;;;;;;15.00;50.22;100435.84;6113334;23;20049;-80
2022/10/08 13:14:41;;;;;;;;;;;;;;;;;;;;;
2022/10/08 13:17:38;;;;;;;5.45;2.10;;;;;;;15.08;50.52;100458.47;6074558;23;20021;-81
2022/10/08 13:20:21;;;;;;;7.88;2.03;;;;;;;14.72;50.36;100383.06;6130482;23;20050;-80
2022/10/08 13:23:20;;;;;;;9.05;2.30;;;;;;;14.28;50.48;100339.22;6078256;23;20018;-80
2022/10/08 13:25:55;;;;;;;10.18;3.08;;;;;;;14.90;50.51;100434.28;6130077;23;20036;-81
2022/10/08 13:29:25;;;;;;;7.88;2.35;;;;;;;14.83;50.54;100430.03;6089848;23;20018;-81
2022/10/08 13:32:43;;;;;;;6.75;2.60;;;;;;;14.10;50.81;100327.28;6097741;23;20021;-81
2022/10/08 13:35:22;;;;;;;8.95;2.63;;;;;;;14.06;50.84;100322.97;6142209;23;20060;-80
2022/10/08 13:37:56;;;;;;;7.38;2.47;;;;;;;14.38;50.97;100387.06;6107441;23;20021;-80
2022/10/08 13:40:29;;;;;;;7.68;2.50;;;;;;;13.47;51.29;100249.69;6104804;23;20094;-82
2022/10/08 13:43:40;;;;;;;4.40;2.38;;;;;;;14.53;51.20;100420.00;6098718;23;20017;-80
2022/10/08 13:46:32;;;;;;;8.30;2.90;;;;;;;14.03;51.24;100346.56;6107163;23;20466;-81
2022/10/08 13:49:54;;;;;;;10.25;3.00;;;;;;;14.54;51.03;100436.56;5959340;23;20066;-83
2022/10/08 13:53:04;;;;;;;8.55;3.15;;;;;;;13.24;51.07;100249.09;6021534;23;20368;-83
2022/10/08 13:56:23;;;;;;;7.18;2.63;;;;;;;13.61;51.34;100300.06;6076225;23;20045;-81
2022/10/08 13:59:27;;;;;;;5.85;2.60;;;;;;;14.33;51.53;100436.00;6087090;23;20026;-81
2022/10/08 14:02:13;;;;;;;;;;;;;;;;;;;;;
2022/10/08 14:04:40;;;;;;;8.45;2.60;;;;;;;14.20;51.76;100443.16;6134926;23;20017;-82
2022/10/08 14:07:32;;;;;;;8.50;3.10;;;;;;;12.89;51.76;100220.78;6087068;23;20051;-82
2022/10/08 14:10:18;;;;;;;9.98;3.05;;;;;;;13.86;51.90;100393.91;6117829;23;20037;-82
2022/10/08 14:13:01;;;;;;;8.00;3.17;;;;;;;13.30;51.94;100325.69;6116798;23;20018;-83
2022/10/08 14:15:29;;;;;;;8.63;3.45;;;;;;;13.63;52.25;100373.25;6138822;23;20089;-82
2022/10/08 14:17:55;;;;;;;5.43;2.72;;;;;;;12.79;52.26;100239.19;6112478;23;20021;-82
2022/10/08 14:20:23;;;;;;;9.43;3.30;;;;;;;13.20;52.29;100325.78;6108567;23;20042;-81
2022/10/08 14:22:58;;;;;;;9.57;3.83;;;;;;;13.82;52.47;100434.06;6112065;23;20022;-82
2022/10/08 14:25:38;;;;;;;13.43;3.47;;;;;;;12.67;52.63;100235.84;6090335;23;20259;-81
2022/10/08 14:28:23;;;;;;;8.73;3.58;;;;;;;12.94;52.83;100297.34;6151937;23;20013;-82
2022/10/08 14:30:56;;;;;;;10.73;3.90;;;;;;;13.60;52.83;100417.72;6088825;23;20022;-81
2022/10/08 14:33:39;;;;;;;10.95;4.05;;;;;;;13.51;53.00;100427.44;6067093;23;20017;-80
2022/10/08 14:36:21;;;;;;;10.02;4.35;;;;;;;13.08;53.35;100359.91;6047368;23;20030;-81